sensor_id;sensor_type;location;lat;lon;timestamp;pressure;altitude;pressure_sealevel;temperature;humidity
75420;BME280;63998;52.488;13.428;2023-03-01T00:00:00;102625.28;;;3.81;57.40
75420;BME280;63998;52.488;13.428;2023-03-01T00:02:27;102628.25;;;3.74;55.59
75420;BME280;63998;52.488;13.428;2023-03-01T00:04:54;102614.81;;;3.78;57.59
75420;BME280;63998;52.488;13.428;2023-03-01T00:07:20;102624.91;;;3.75;57.62
75420;BME280;63998;52.488;13.428;2023-03-01T00:09:45;102617.47;;;3.80;57.93
75420;BME280;63998;52.488;13.428;2023-03-01T00:12:14;102613.22;;;3.80;58.00
75420;BME280;63998;52.488;13.428;2023-03-01T00:14:40;102605.66;;;3.83;57.74
75420;BME280;63998;52.488;13.428;2023-03-01T00:17:07;102610.59;;;3.93;58.79
75420;BME280;63998;52.488;13.428;2023-03-01T00:19:33;102608.44;;;3.86;58.15
75420;BME280;63998;52.488;13.428;2023-03-01T00:21:58;102598.16;;;3.86;57.23
75420;BME280;63998;52.488;13.428;2023-03-01T00:24:23;102596.38;;;3.85;58.42
75420;BME280;63998;52.488;13.428;2023-03-01T00:26:53;102596.56;;;3.88;58.74
75420;BME280;63998;52.488;13.428;2023-03-01T00:29:23;102597.44;;;3.89;57.48
75420;BME280;63998;52.488;13.428;2023-03-01T00:31:49;102595.38;;;3.83;57.79
75420;BME280;63998;52.488;13.428;2023-03-01T00:34:14;102590.16;;;3.67;55.16
75420;BME280;63998;52.488;13.428;2023-03-01T00:36:40;102601.66;;;3.59;56.65
75420;BME280;63998;52.488;13.428;2023-03-01T00:39:10;102598.81;;;3.54;57.84
75420;BME280;63998;52.488;13.428;2023-03-01T00:41:39;102594.75;;;3.58;57.96
75420;BME280;63998;52.488;13.428;2023-03-01T00:44:05;102594.75;;;3.58;58.96
75420;BME280;63998;52.488;13.428;2023-03-01T00:46:30;102592.19;;;3.58;59.35
75420;BME280;63998;52.488;13.428;2023-03-01T00:48:56;102589.63;;;3.58;59.53
75420;BME280;63998;52.488;13.428;2023-03-01T00:51:28;102586.22;;;3.59;59.44
75420;BME280;63998;52.488;13.428;2023-03-01T00:53:58;102583.84;;;3.62;60.16
75420;BME280;63998;52.488;13.428;2023-03-01T00:56:28;102590.16;;;3.67;60.65
75420;BME280;63998;52.488;13.428;2023-03-01T00:58:54;102593.53;;;3.66;60.14
75420;BME280;63998;52.488;13.428;2023-03-01T01:01:24;102599.47;;;3.65;61.21
75420;BME280;63998;52.488;13.428;2023-03-01T01:03:55;102584.66;;;3.61;60.29
75420;BME280;63998;52.488;13.428;2023-03-01T01:06:23;102583.94;;;3.64;60.73
75420;BME280;63998;52.488;13.428;2023-03-01T01:08:51;102575.00;;;3.57;59.64
75420;BME280;63998;52.488;13.428;2023-03-01T01:11:21;102580.16;;;3.57;59.73
75420;BME280;63998;52.488;13.428;2023-03-01T01:13:48;102581.91;;;3.58;59.85
75420;BME280;63998;52.488;13.428;2023-03-01T01:16:17;102582.50;;;3.54;60.19
75420;BME280;63998;52.488;13.428;2023-03-01T01:18:44;102570.66;;;3.56;59.44
75420;BME280;63998;52.488;13.428;2023-03-01T01:21:12;102567.72;;;3.50;58.74
75420;BME280;63998;52.488;13.428;2023-03-01T01:23:38;102564.94;;;3.47;58.57
75420;BME280;63998;52.488;13.428;2023-03-01T01:26:19;102562.81;;;3.40;59.01
75420;BME280;63998;52.488;13.428;2023-03-01T01:28:47;102557.94;;;3.30;57.95
75420;BME280;63998;52.488;13.428;2023-03-01T01:31:13;102555.16;;;3.27;59.06
75420;BME280;63998;52.488;13.428;2023-03-01T01:33:40;102544.72;;;3.23;57.79
75420;BME280;63998;52.488;13.428;2023-03-01T01:36:07;102543.13;;;3.25;58.53
75420;BME280;63998;52.488;13.428;2023-03-01T01:38:39;102536.59;;;3.31;59.45
75420;BME280;63998;52.488;13.428;2023-03-01T01:41:05;102540.31;;;3.36;58.93
75420;BME280;63998;52.488;13.428;2023-03-01T01:43:35;102543.84;;;3.38;59.04
75420;BME280;63998;52.488;13.428;2023-03-01T01:46:31;102536.16;;;3.38;59.05
75420;BME280;63998;52.488;13.428;2023-03-01T01:49:04;102538.63;;;3.36;60.29
75420;BME280;63998;52.488;13.428;2023-03-01T01:51:35;102547.59;;;3.43;60.32
75420;BME280;63998;52.488;13.428;2023-03-01T01:54:07;102544.25;;;3.44;61.11
75420;BME280;63998;52.488;13.428;2023-03-01T01:56:35;102541.56;;;3.42;60.27
75420;BME280;63998;52.488;13.428;2023-03-01T01:59:04;102547.78;;;3.46;61.32
75420;BME280;63998;52.488;13.428;2023-03-01T02:01:29;102544.25;;;3.44;59.06
75420;BME280;63998;52.488;13.428;2023-03-01T02:03:54;102554.13;;;3.38;60.31
75420;BME280;63998;52.488;13.428;2023-03-01T02:06:33;102550.41;;;3.33;60.37
75420;BME280;63998;52.488;13.428;2023-03-01T02:09:06;102553.00;;;3.33;61.23
75420;BME280;63998;52.488;13.428;2023-03-01T02:11:33;102555.38;;;3.30;60.09
75420;BME280;63998;52.488;13.428;2023-03-01T02:13:59;102557.94;;;3.30;60.50
75420;BME280;63998;52.488;13.428;2023-03-01T02:16:25;102555.16;;;3.27;60.17
75420;BME280;63998;52.488;13.428;2023-03-01T02:18:51;102545.09;;;3.30;60.93
75420;BME280;63998;52.488;13.428;2023-03-01T02:21:37;102548.44;;;3.29;60.36
75420;BME280;63998;52.488;13.428;2023-03-01T02:24:14;102545.88;;;3.29;60.27
75420;BME280;63998;52.488;13.428;2023-03-01T02:26:47;102548.44;;;3.29;61.37
75420;BME280;63998;52.488;13.428;2023-03-01T02:29:13;102555.88;;;3.24;61.43
75420;BME280;63998;52.488;13.428;2023-03-01T02:31:39;102556.56;;;3.21;60.34
75420;BME280;63998;52.488;13.428;2023-03-01T02:34:11;102551.41;;;3.21;61.05
75420;BME280;63998;52.488;13.428;2023-03-01T02:36:48;102554.44;;;3.14;60.09
75420;BME280;63998;52.488;13.428;2023-03-01T02:39:19;102557.78;;;3.13;60.78
75420;BME280;63998;52.488;13.428;2023-03-01T02:41:50;102560.09;;;3.09;60.78
75420;BME280;63998;52.488;13.428;2023-03-01T02:44:16;102564.34;;;3.08;60.97
75420;BME280;63998;52.488;13.428;2023-03-01T02:46:48;102559.38;;;3.11;61.62
75420;BME280;63998;52.488;13.428;2023-03-01T02:49:22;102558.38;;;3.09;62.44
75420;BME280;63998;52.488;13.428;2023-03-01T02:51:52;102556.66;;;2.95;60.04
75420;BME280;63998;52.488;13.428;2023-03-01T02:56:53;102547.03;;;2.78;60.15
75420;BME280;63998;52.488;13.428;2023-03-01T02:59:22;102539.75;;;2.71;61.06
75420;BME280;63998;52.488;13.428;2023-03-01T03:01:48;102539.75;;;2.71;62.34
75420;BME280;63998;52.488;13.428;2023-03-01T03:04:17;102532.41;;;2.77;62.95
75420;BME280;63998;52.488;13.428;2023-03-01T03:06:44;102531.44;;;2.75;61.97
75420;BME280;63998;52.488;13.428;2023-03-01T03:09:10;102530.66;;;2.63;61.38
75420;BME280;63998;52.488;13.428;2023-03-01T03:11:37;102530.88;;;2.66;63.19
75420;BME280;63998;52.488;13.428;2023-03-01T03:14:04;102527.88;;;2.73;63.54
75420;BME280;63998;52.488;13.428;2023-03-01T03:16:29;102529.50;;;2.71;62.97
75420;BME280;63998;52.488;13.428;2023-03-01T03:18:55;102528.09;;;2.76;63.65
75420;BME280;63998;52.488;13.428;2023-03-01T03:21:29;102540.31;;;2.80;63.80
75420;BME280;63998;52.488;13.428;2023-03-01T03:23:55;102535.09;;;2.78;63.66
75420;BME280;63998;52.488;13.428;2023-03-01T03:26:23;102534.28;;;2.79;64.13
75420;BME280;63998;52.488;13.428;2023-03-01T03:28:48;102530.25;;;2.83;63.93
75420;BME280;63998;52.488;13.428;2023-03-01T03:31:14;102527.97;;;2.74;63.11
75420;BME280;63998;52.488;13.428;2023-03-01T03:33:39;102527.88;;;2.73;63.69
75420;BME280;63998;52.488;13.428;2023-03-01T03:36:05;102515.88;;;2.72;64.16
75420;BME280;63998;52.488;13.428;2023-03-01T03:38:32;102520.03;;;2.70;63.54
75420;BME280;63998;52.488;13.428;2023-03-01T03:41:04;102522.00;;;2.61;63.90
75420;BME280;63998;52.488;13.428;2023-03-01T03:43:34;102515.13;;;2.60;63.40
75420;BME280;63998;52.488;13.428;2023-03-01T03:46:00;102514.50;;;2.50;62.72
75420;BME280;63998;52.488;13.428;2023-03-01T03:48:29;102515.53;;;2.26;61.21
75420;BME280;63998;52.488;13.428;2023-03-01T03:50:56;102506.66;;;2.08;61.34
75420;BME280;63998;52.488;13.428;2023-03-01T03:53:23;102510.22;;;1.97;62.52
75420;BME280;63998;52.488;13.428;2023-03-01T03:55:49;102498.34;;;1.86;61.66
75420;BME280;63998;52.488;13.428;2023-03-01T03:58:17;102499.53;;;1.77;61.93
75420;BME280;63998;52.488;13.428;2023-03-01T04:00:45;102496.50;;;1.70;62.69
75420;BME280;63998;52.488;13.428;2023-03-01T04:03:13;102493.22;;;1.59;62.80
75420;BME280;63998;52.488;13.428;2023-03-01T04:05:40;102501.47;;;1.55;62.56
75420;BME280;63998;52.488;13.428;2023-03-01T04:08:06;102500.97;;;1.61;63.52
75420;BME280;63998;52.488;13.428;2023-03-01T04:10:35;102500.31;;;1.76;64.35
75420;BME280;63998;52.488;13.428;2023-03-01T04:13:03;102499.75;;;1.94;65.40
75420;BME280;63998;52.488;13.428;2023-03-01T04:15:28;102501.34;;;2.05;65.89
75420;BME280;63998;52.488;13.428;2023-03-01T04:17:56;102499.78;;;2.07;64.58
75420;BME280;63998;52.488;13.428;2023-03-01T04:20:24;102496.00;;;2.02;63.74
75420;BME280;63998;52.488;13.428;2023-03-01T04:23:01;102505.47;;;2.16;66.05
75420;BME280;63998;52.488;13.428;2023-03-01T04:25:58;102501.56;;;2.21;66.14
75420;BME280;63998;52.488;13.428;2023-03-01T04:28:26;102503.13;;;2.06;63.15
75420;BME280;63998;52.488;13.428;2023-03-01T04:30:53;102499.19;;;1.85;62.95
75420;BME280;63998;52.488;13.428;2023-03-01T04:33:19;102496.97;;;1.64;62.27
75420;BME280;63998;52.488;13.428;2023-03-01T04:35:45;102495.00;;;1.60;63.26
75420;BME280;63998;52.488;13.428;2023-03-01T04:38:10;102498.16;;;1.69;64.93
75420;BME280;63998;52.488;13.428;2023-03-01T04:40:37;102495.41;;;1.79;65.30
75420;BME280;63998;52.488;13.428;2023-03-01T04:43:03;102503.09;;;1.79;65.02
75420;BME280;63998;52.488;13.428;2023-03-01T04:45:29;102488.13;;;1.86;65.44
75420;BME280;63998;52.488;13.428;2023-03-01T04:47:54;102494.75;;;1.95;65.83
75420;BME280;63998;52.488;13.428;2023-03-01T04:50:23;102488.13;;;1.99;65.67
75420;BME280;63998;52.488;13.428;2023-03-01T04:52:51;102486.16;;;1.95;65.75
75420;BME280;63998;52.488;13.428;2023-03-01T04:55:17;102494.41;;;1.77;63.10
75420;BME280;63998;52.488;13.428;2023-03-01T04:57:42;102491.63;;;1.61;62.53
75420;BME280;63998;52.488;13.428;2023-03-01T05:00:10;102494.59;;;1.54;63.65
75420;BME280;63998;52.488;13.428;2023-03-01T05:03:05;102502.66;;;1.47;62.93
75420;BME280;63998;52.488;13.428;2023-03-01T05:05:35;102496.69;;;1.22;63.00
75420;BME280;63998;52.488;13.428;2023-03-01T05:08:06;102494.50;;;1.28;64.85
75420;BME280;63998;52.488;13.428;2023-03-01T05:10:33;102485.09;;;1.40;65.62
75420;BME280;63998;52.488;13.428;2023-03-01T05:13:02;102500.88;;;1.46;66.45
75420;BME280;63998;52.488;13.428;2023-03-01T05:15:31;102494.19;;;1.48;65.50
75420;BME280;63998;52.488;13.428;2023-03-01T05:17:58;102492.16;;;1.31;64.11
75420;BME280;63998;52.488;13.428;2023-03-01T05:20:29;102493.91;;;1.19;63.61
75420;BME280;63998;52.488;13.428;2023-03-01T05:22:59;102490.63;;;1.08;63.64
75420;BME280;63998;52.488;13.428;2023-03-01T05:25:31;102487.34;;;0.97;64.04
75420;BME280;63998;52.488;13.428;2023-03-01T05:28:02;102497.03;;;1.15;67.08
75420;BME280;63998;52.488;13.428;2023-03-01T05:30:34;102489.59;;;1.31;67.32
75420;BME280;63998;52.488;13.428;2023-03-01T05:33:00;102490.88;;;1.37;66.13
75420;BME280;63998;52.488;13.428;2023-03-01T05:35:25;102481.44;;;1.23;64.26
75420;BME280;63998;52.488;13.428;2023-03-01T05:37:51;102487.84;;;1.30;65.56
75420;BME280;63998;52.488;13.428;2023-03-01T05:40:20;102479.41;;;1.44;66.71
75420;BME280;63998;52.488;13.428;2023-03-01T05:42:47;102472.63;;;1.44;66.19
75420;BME280;63998;52.488;13.428;2023-03-01T05:45:14;102479.22;;;1.54;66.12
75420;BME280;63998;52.488;13.428;2023-03-01T05:47:41;102474.66;;;1.50;65.18
75420;BME280;63998;52.488;13.428;2023-03-01T05:50:14;102474.56;;;1.49;64.99
75420;BME280;63998;52.488;13.428;2023-03-01T05:52:43;102471.53;;;1.54;66.19
75420;BME280;63998;52.488;13.428;2023-03-01T05:55:09;102475.94;;;1.43;64.56
75420;BME280;63998;52.488;13.428;2023-03-01T05:57:34;102482.09;;;1.21;63.47
75420;BME280;63998;52.488;13.428;2023-03-01T06:00:00;102482.94;;;0.83;63.73
75420;BME280;63998;52.488;13.428;2023-03-01T06:02:25;102480.31;;;0.70;65.20
75420;BME280;63998;52.488;13.428;2023-03-01T06:04:52;102484.28;;;0.78;66.93
75420;BME280;63998;52.488;13.428;2023-03-01T06:07:19;102490.97;;;0.64;65.58
75420;BME280;63998;52.488;13.428;2023-03-01T06:09:44;102483.88;;;0.72;65.83
75420;BME280;63998;52.488;13.428;2023-03-01T06:12:10;102487.94;;;0.82;68.14
75420;BME280;63998;52.488;13.428;2023-03-01T06:14:35;102483.56;;;0.92;67.42
75420;BME280;63998;52.488;13.428;2023-03-01T06:17:03;102488.72;;;0.81;66.21
75420;BME280;63998;52.488;13.428;2023-03-01T06:19:28;102489.75;;;0.71;66.63
75420;BME280;63998;52.488;13.428;2023-03-01T06:21:56;102490.44;;;0.57;66.12
75420;BME280;63998;52.488;13.428;2023-03-01T06:24:21;102492.59;;;0.39;66.01
75420;BME280;63998;52.488;13.428;2023-03-01T06:26:46;102484.06;;;0.27;66.77
75420;BME280;63998;52.488;13.428;2023-03-01T06:29:12;102490.53;;;0.10;66.87
75420;BME280;63998;52.488;13.428;2023-03-01T06:31:39;102487.63;;;0.17;67.04
75420;BME280;63998;52.488;13.428;2023-03-01T06:34:05;102488.63;;;0.19;67.05
75420;BME280;63998;52.488;13.428;2023-03-01T06:36:33;102484.16;;;0.28;67.04
75420;BME280;63998;52.488;13.428;2023-03-01T06:38:58;102497.25;;;0.45;67.46
75420;BME280;63998;52.488;13.428;2023-03-01T06:41:24;102495.66;;;0.70;70.00
75420;BME280;63998;52.488;13.428;2023-03-01T06:43:51;102488.25;;;0.86;68.50
75420;BME280;63998;52.488;13.428;2023-03-01T06:46:17;102494.22;;;0.98;67.01
75420;BME280;63998;52.488;13.428;2023-03-01T06:48:43;102499.63;;;1.28;69.41
75420;BME280;63998;52.488;13.428;2023-03-01T06:51:08;102506.00;;;1.46;70.27
75420;BME280;63998;52.488;13.428;2023-03-01T06:53:35;102498.91;;;1.55;67.47
75420;BME280;63998;52.488;13.428;2023-03-01T06:56:03;102493.50;;;1.26;63.95
75420;BME280;63998;52.488;13.428;2023-03-01T06:58:28;102495.50;;;1.30;64.58
75420;BME280;63998;52.488;13.428;2023-03-01T07:00:54;102497.53;;;1.47;66.54
75420;BME280;63998;52.488;13.428;2023-03-01T07:03:19;102493.69;;;1.54;66.78
75420;BME280;63998;52.488;13.428;2023-03-01T07:05:50;102491.44;;;1.58;64.68
75420;BME280;63998;52.488;13.428;2023-03-01T07:08:21;102499.41;;;1.63;64.89
75420;BME280;63998;52.488;13.428;2023-03-01T07:10:47;102502.50;;;1.70;65.98
75420;BME280;63998;52.488;13.428;2023-03-01T07:13:12;102504.69;;;2.04;67.96
75420;BME280;63998;52.488;13.428;2023-03-01T07:15:40;102512.75;;;2.23;68.12
75420;BME280;63998;52.488;13.428;2023-03-01T07:18:07;102503.69;;;2.41;68.02
75420;BME280;63998;52.488;13.428;2023-03-01T07:20:33;102509.97;;;2.60;67.24
75420;BME280;63998;52.488;13.428;2023-03-01T07:23:01;102509.13;;;2.74;66.63
75420;BME280;63998;52.488;13.428;2023-03-01T07:25:28;102498.25;;;2.91;67.57
75420;BME280;63998;52.488;13.428;2023-03-01T07:27:54;102511.03;;;3.04;67.31
75420;BME280;63998;52.488;13.428;2023-03-01T07:30:20;102504.19;;;3.33;68.12
75420;BME280;63998;52.488;13.428;2023-03-01T07:32:45;102504.19;;;3.47;67.68
75420;BME280;63998;52.488;13.428;2023-03-01T07:35:11;102507.50;;;3.45;65.02
75420;BME280;63998;52.488;13.428;2023-03-01T07:37:36;102508.13;;;3.55;65.64
75420;BME280;63998;52.488;13.428;2023-03-01T07:40:02;102504.00;;;3.59;65.16
75420;BME280;63998;52.488;13.428;2023-03-01T07:42:27;102512.19;;;3.67;64.99
75420;BME280;63998;52.488;13.428;2023-03-01T07:44:55;102505.28;;;3.80;65.58
75420;BME280;63998;52.488;13.428;2023-03-01T07:47:25;102495.34;;;3.86;64.26
75420;BME280;63998;52.488;13.428;2023-03-01T07:49:52;102492.06;;;3.74;60.98
75420;BME280;63998;52.488;13.428;2023-03-01T07:52:20;102492.44;;;3.80;62.33
75420;BME280;63998;52.488;13.428;2023-03-01T07:54:47;102497.91;;;3.86;62.56
75420;BME280;63998;52.488;13.428;2023-03-01T07:57:15;102487.72;;;4.03;62.06
75420;BME280;63998;52.488;13.428;2023-03-01T07:59:40;102489.19;;;4.14;61.77
75420;BME280;63998;52.488;13.428;2023-03-01T08:02:09;102499.06;;;4.06;58.79
75420;BME280;63998;52.488;13.428;2023-03-01T08:04:35;102496.56;;;4.08;60.63
75420;BME280;63998;52.488;13.428;2023-03-01T08:07:00;102496.91;;;4.14;61.47
75420;BME280;63998;52.488;13.428;2023-03-01T08:09:26;102496.63;;;4.24;60.64
75420;BME280;63998;52.488;13.428;2023-03-01T08:11:56;102486.78;;;4.31;58.61
75420;BME280;63998;52.488;13.428;2023-03-01T08:14:21;102488.56;;;4.49;59.51
75420;BME280;63998;52.488;13.428;2023-03-01T08:16:49;102488.03;;;4.70;60.52
75420;BME280;63998;52.488;13.428;2023-03-01T08:19:17;102494.16;;;4.89;60.40
75420;BME280;63998;52.488;13.428;2023-03-01T08:21:46;102483.53;;;4.83;57.89
75420;BME280;63998;52.488;13.428;2023-03-01T08:24:12;102483.25;;;4.93;57.95
75420;BME280;63998;52.488;13.428;2023-03-01T08:26:40;102478.66;;;5.03;59.36
75420;BME280;63998;52.488;13.428;2023-03-01T08:29:06;102480.00;;;5.13;58.30
75420;BME280;63998;52.488;13.428;2023-03-01T08:31:36;102471.78;;;5.20;55.47
75420;BME280;63998;52.488;13.428;2023-03-01T08:34:06;102472.69;;;5.04;53.72
75420;BME280;63998;52.488;13.428;2023-03-01T08:36:34;102473.56;;;4.89;51.94
75420;BME280;63998;52.488;13.428;2023-03-01T08:39:00;102469.69;;;4.97;54.15
75420;BME280;63998;52.488;13.428;2023-03-01T08:41:25;102470.88;;;5.20;55.75
75420;BME280;63998;52.488;13.428;2023-03-01T08:43:51;102465.50;;;5.31;56.08
75420;BME280;63998;52.488;13.428;2023-03-01T08:46:18;102468.38;;;5.37;54.37
75420;BME280;63998;52.488;13.428;2023-03-01T08:48:43;102466.44;;;5.33;52.64
75420;BME280;63998;52.488;13.428;2023-03-01T08:51:14;102471.13;;;5.40;53.50
75420;BME280;63998;52.488;13.428;2023-03-01T08:53:40;102468.28;;;5.52;53.14
75420;BME280;63998;52.488;13.428;2023-03-01T08:56:06;102460.88;;;5.76;56.35
75420;BME280;63998;52.488;13.428;2023-03-01T08:58:34;102459.88;;;5.90;55.46
75420;BME280;63998;52.488;13.428;2023-03-01T09:01:09;102457.59;;;5.96;52.83
75420;BME280;63998;52.488;13.428;2023-03-01T09:03:35;102460.47;;;6.02;53.55
75420;BME280;63998;52.488;13.428;2023-03-01T09:06:01;102450.44;;;6.08;55.58
75420;BME280;63998;52.488;13.428;2023-03-01T09:08:29;102448.81;;;6.10;51.88
75420;BME280;63998;52.488;13.428;2023-03-01T09:10:55;102443.81;;;6.13;50.39
75420;BME280;63998;52.488;13.428;2023-03-01T09:13:21;102439.38;;;6.11;50.15
75420;BME280;63998;52.488;13.428;2023-03-01T09:15:49;102446.16;;;6.09;50.28
75420;BME280;63998;52.488;13.428;2023-03-01T09:18:15;102444.47;;;6.09;49.98
75420;BME280;63998;52.488;13.428;2023-03-01T09:20:42;102438.91;;;6.20;51.69
75420;BME280;63998;52.488;13.428;2023-03-01T09:23:08;102443.81;;;6.13;49.71
75420;BME280;63998;52.488;13.428;2023-03-01T09:25:36;102447.06;;;5.92;47.55
75420;BME280;63998;52.488;13.428;2023-03-01T09:28:01;102438.19;;;5.87;47.24
75420;BME280;63998;52.488;13.428;2023-03-01T09:30:26;102442.44;;;5.86;46.75
75420;BME280;63998;52.488;13.428;2023-03-01T09:32:52;102439.53;;;5.96;46.07
75420;BME280;63998;52.488;13.428;2023-03-01T09:35:20;102438.66;;;6.13;50.37
75420;BME280;63998;52.488;13.428;2023-03-01T09:37:47;102440.91;;;6.07;48.06
75420;BME280;63998;52.488;13.428;2023-03-01T09:40:17;102437.91;;;5.98;45.69
75420;BME280;63998;52.488;13.428;2023-03-01T09:42:56;102439.31;;;6.09;48.41
75420;BME280;63998;52.488;13.428;2023-03-01T09:45:29;102428.91;;;6.26;50.06
75420;BME280;63998;52.488;13.428;2023-03-01T09:47:58;102439.53;;;5.96;44.79
75420;BME280;63998;52.488;13.428;2023-03-01T09:50:26;102433.53;;;5.62;44.57
75420;BME280;63998;52.488;13.428;2023-03-01T09:53:06;102433.31;;;5.75;46.44
75420;BME280;63998;52.488;13.428;2023-03-01T09:56:04;102431.84;;;5.80;45.57
75420;BME280;63998;52.488;13.428;2023-03-01T09:58:40;102436.56;;;6.06;49.05
75420;BME280;63998;52.488;13.428;2023-03-01T10:09:34;102431.00;;;6.91;47.39
75420;BME280;63998;52.488;13.428;2023-03-01T10:12:09;102432.34;;;7.02;45.90
75420;BME280;63998;52.488;13.428;2023-03-01T10:14:40;102439.53;;;7.09;46.77
75420;BME280;63998;52.488;13.428;2023-03-01T10:19:49;102442.63;;;7.40;45.87
75420;BME280;63998;52.488;13.428;2023-03-01T10:22:32;102434.50;;;7.12;41.06
75420;BME280;63998;52.488;13.428;2023-03-01T10:25:02;102437.03;;;7.10;44.24
75420;BME280;63998;52.488;13.428;2023-03-01T10:32:36;102418.50;;;7.20;42.17
75420;BME280;63998;52.488;13.428;2023-03-01T10:35:25;102420.91;;;7.57;47.17
75420;BME280;63998;52.488;13.428;2023-03-01T10:38:08;102414.06;;;7.79;43.59
75420;BME280;63998;52.488;13.428;2023-03-01T10:40:36;102416.88;;;7.85;42.05
75420;BME280;63998;52.488;13.428;2023-03-01T10:43:16;102415.09;;;7.84;40.92
75420;BME280;63998;52.488;13.428;2023-03-01T10:45:42;102422.53;;;7.97;42.54
75420;BME280;63998;52.488;13.428;2023-03-01T10:50:40;102403.38;;;8.14;40.38
75420;BME280;63998;52.488;13.428;2023-03-01T10:53:23;102408.63;;;8.16;39.10
75420;BME280;63998;52.488;13.428;2023-03-01T10:56:08;102400.88;;;8.17;39.63
75420;BME280;63998;52.488;13.428;2023-03-01T10:58:36;102401.00;;;8.20;41.68
75420;BME280;63998;52.488;13.428;2023-03-01T11:03:34;102402.16;;;8.28;39.79
75420;BME280;63998;52.488;13.428;2023-03-01T11:06:04;102387.59;;;8.30;40.28
75420;BME280;63998;52.488;13.428;2023-03-01T11:08:44;102390.28;;;8.56;42.28
75420;BME280;63998;52.488;13.428;2023-03-01T11:11:23;102392.75;;;8.75;40.46
75420;BME280;63998;52.488;13.428;2023-03-01T11:14:06;102381.47;;;8.98;41.79
75420;BME280;63998;52.488;13.428;2023-03-01T11:16:38;102382.19;;;9.20;42.23
75420;BME280;63998;52.488;13.428;2023-03-01T11:24:13;102368.34;;;9.19;36.96
75420;BME280;63998;52.488;13.428;2023-03-01T11:26:45;102363.84;;;9.39;39.35
75420;BME280;63998;52.488;13.428;2023-03-01T11:29:27;102365.41;;;9.34;35.47
75420;BME280;63998;52.488;13.428;2023-03-01T11:32:01;102362.50;;;9.25;36.17
75420;BME280;63998;52.488;13.428;2023-03-01T11:34:40;102356.78;;;9.35;34.85
75420;BME280;63998;52.488;13.428;2023-03-01T11:40:13;102342.13;;;9.35;33.91
75420;BME280;63998;52.488;13.428;2023-03-01T11:45:26;102340.16;;;9.55;34.30
75420;BME280;63998;52.488;13.428;2023-03-01T11:48:12;102338.97;;;9.72;33.56
75420;BME280;63998;52.488;13.428;2023-03-01T11:50:47;102354.06;;;10.14;36.13
75420;BME280;63998;52.488;13.428;2023-03-01T12:04:30;102355.19;;;10.51;30.21
75420;BME280;63998;52.488;13.428;2023-03-01T12:07:01;102349.72;;;10.73;29.88
75420;BME280;63998;52.488;13.428;2023-03-01T12:12:29;102338.72;;;11.52;30.62
75420;BME280;63998;52.488;13.428;2023-03-01T12:20:28;102326.41;;;11.79;29.10
75420;BME280;63998;52.488;13.428;2023-03-01T12:25:46;102313.22;;;12.56;28.92
75420;BME280;63998;52.488;13.428;2023-03-01T12:28:46;102313.88;;;12.91;28.54
75420;BME280;63998;52.488;13.428;2023-03-01T12:36:53;102299.84;;;12.83;27.48
75420;BME280;63998;52.488;13.428;2023-03-01T12:42:04;102285.22;;;13.44;26.00
75420;BME280;63998;52.488;13.428;2023-03-01T12:47:07;102278.06;;;13.92;23.94
75420;BME280;63998;52.488;13.428;2023-03-01T12:49:40;102281.81;;;14.16;23.41
75420;BME280;63998;52.488;13.428;2023-03-01T12:52:13;102265.72;;;14.53;22.94
75420;BME280;63998;52.488;13.428;2023-03-01T12:54:41;102274.38;;;14.49;22.27
75420;BME280;63998;52.488;13.428;2023-03-01T12:57:27;102267.50;;;14.59;23.21
75420;BME280;63998;52.488;13.428;2023-03-01T13:03:00;102268.81;;;14.22;22.98
75420;BME280;63998;52.488;13.428;2023-03-01T13:05:56;102255.53;;;14.81;23.25
75420;BME280;63998;52.488;13.428;2023-03-01T13:08:35;102257.53;;;15.15;22.97
75420;BME280;63998;52.488;13.428;2023-03-01T13:11:03;102247.69;;;14.81;22.04
75420;BME280;63998;52.488;13.428;2023-03-01T13:13:30;102251.75;;;14.51;22.45
75420;BME280;63998;52.488;13.428;2023-03-01T13:19:22;102254.53;;;14.68;22.46
75420;BME280;63998;52.488;13.428;2023-03-01T13:21:50;102254.19;;;15.31;22.92
75420;BME280;63998;52.488;13.428;2023-03-01T13:24:37;102249.25;;;15.86;23.09
75420;BME280;63998;52.488;13.428;2023-03-01T13:32:30;102231.16;;;16.67;20.18
75420;BME280;63998;52.488;13.428;2023-03-01T13:37:42;102223.28;;;16.83;18.71
75420;BME280;63998;52.488;13.428;2023-03-01T13:42:56;102221.53;;;16.73;19.38
75420;BME280;63998;52.488;13.428;2023-03-01T13:45:34;102225.03;;;16.63;18.92
75420;BME280;63998;52.488;13.428;2023-03-01T13:48:08;102218.91;;;16.82;18.85
75420;BME280;63998;52.488;13.428;2023-03-01T13:50:42;102220.63;;;17.08;19.28
75420;BME280;63998;52.488;13.428;2023-03-01T13:53:14;102211.00;;;17.28;18.60
75420;BME280;63998;52.488;13.428;2023-03-01T13:55:44;102213.59;;;17.36;18.63
75420;BME280;63998;52.488;13.428;2023-03-01T13:58:22;102208.38;;;17.27;18.23
75420;BME280;63998;52.488;13.428;2023-03-01T14:03:24;102198.50;;;18.00;18.26
75420;BME280;63998;52.488;13.428;2023-03-01T14:09:17;102199.75;;;18.74;18.20
75420;BME280;63998;52.488;13.428;2023-03-01T14:14:41;102184.63;;;18.97;17.74
75420;BME280;63998;52.488;13.428;2023-03-01T14:19:57;102175.53;;;18.23;17.87
75420;BME280;63998;52.488;13.428;2023-03-01T14:25:01;102177.22;;;18.37;18.00
75420;BME280;63998;52.488;13.428;2023-03-01T14:27:39;102168.78;;;19.02;17.39
75420;BME280;63998;52.488;13.428;2023-03-01T14:30:18;102167.59;;;19.29;17.20
75420;BME280;63998;52.488;13.428;2023-03-01T14:32:58;102166.88;;;19.90;17.00
75420;BME280;63998;52.488;13.428;2023-03-01T14:35:30;102168.44;;;20.03;17.43
75420;BME280;63998;52.488;13.428;2023-03-01T14:37:58;102157.44;;;20.36;16.36